Jenkinsville, South Carolina
Current Conditions -  °F | °C
As of 8:15 PM on Sunday 23 Nov 2014 (Local Time) from KFDW Reporting Station
Thunderstorm Thunderstorm  
Wind Chill: 17°   Ceiling: 500
Heat Index: 17°   Visibility: 3mi
Dew Point: 17°   Wind: 13mph
Humidity: 100%   Direction: 170°S
Pressure: 29.81"   Gusts: 21mph
Location:  34.27°N, 81.29°W
Report Text: KFDW 240115Z AUTO 17011G18KT 3SM +VCTSRA OVC005 17/17 A2981 RMK AO1 LTG DSNT E THRU S
Loading
Personal Weather Stations






























Interactive Weather Map New forecast layout! Learn more

10-Day Weather Forecast

Advertisements
Track Severe Weather on mobile